VOZ238A YPAD-YMML
Flight info
| Callsign | VOZ238A |
|---|---|
| Flight time | N/A |
| Altitude | 37000 |
| Route | BENDO Y12 ARBEY |
| Aircraft | B738/M-SAE3DGHIM1RWZ/LB1 |
Departure
| Time | 2026-05-01 09:44 |
|---|---|
| Airport | Adelaide International Airport (YPAD) |
Arrival
| Time | N/A |
|---|---|
| Airport | Melbourne Airport (YMML) |
| Time | Latitude | Longitude | Altitude | Speed | Heading |
|---|---|---|---|---|---|
| 2026-05-01 08:38 | -34.93756 | 138.54105 | 26 ft | 0 kts | 320° |
| 2026-05-01 09:31 | -34.93770 | 138.54118 | 28 ft | 4 kts | 320° |
| 2026-05-01 09:32 | -34.93790 | 138.54140 | 32 ft | 4 kts | 313° |
| 2026-05-01 09:32 | -34.93806 | 138.54171 | 32 ft | 1 kts | 283° |
| 2026-05-01 09:36 | -34.93806 | 138.54168 | 32 ft | 2 kts | 283° |
| 2026-05-01 09:36 | -34.93814 | 138.54147 | 29 ft | 5 kts | 230° |
| 2026-05-01 09:37 | -34.93849 | 138.54108 | 29 ft | 9 kts | 221° |
| 2026-05-01 09:37 | -34.93973 | 138.53948 | 24 ft | 15 kts | 230° |
| 2026-05-01 09:37 | -34.94054 | 138.53889 | 26 ft | 14 kts | 157° |
| 2026-05-01 09:38 | -34.94223 | 138.53753 | 25 ft | 21 kts | 230° |
| 2026-05-01 09:38 | -34.94317 | 138.53617 | 22 ft | 21 kts | 230° |
| 2026-05-01 09:38 | -34.94409 | 138.53483 | 22 ft | 20 kts | 230° |
| 2026-05-01 09:39 | -34.94500 | 138.53199 | 23 ft | 19 kts | 300° |
| 2026-05-01 09:39 | -34.94445 | 138.53090 | 24 ft | 13 kts | 289° |
| 2026-05-01 09:39 | -34.94462 | 138.52988 | 21 ft | 13 kts | 234° |
| 2026-05-01 09:40 | -34.94541 | 138.52911 | 25 ft | 21 kts | 217° |
| 2026-05-01 09:40 | -34.94860 | 138.52611 | 20 ft | 27 kts | 218° |
| 2026-05-01 09:40 | -34.94992 | 138.52487 | 20 ft | 23 kts | 218° |
| 2026-05-01 09:41 | -34.95117 | 138.52368 | 20 ft | 22 kts | 218° |
| 2026-05-01 09:41 | -34.95308 | 138.52199 | 20 ft | 11 kts | 201° |
| 2026-05-01 09:41 | -34.95366 | 138.52198 | 19 ft | 5 kts | 162° |
| 2026-05-01 09:42 | -34.95380 | 138.52206 | 19 ft | 0 kts | 150° |
| 2026-05-01 09:42 | -34.95386 | 138.52210 | 21 ft | 3 kts | 148° |
| 2026-05-01 09:43 | -34.95442 | 138.52263 | 21 ft | 6 kts | 139° |
| 2026-05-01 09:43 | -34.95447 | 138.52311 | 21 ft | 7 kts | 59° |
| 2026-05-01 09:43 | -34.95415 | 138.52358 | 21 ft | 10 kts | 50° |
| 2026-05-01 09:44 | -34.94833 | 138.53198 | 25 ft | 128 kts | 51° |
| 2026-05-01 09:44 | -34.94192 | 138.54172 | 234 ft | 158 kts | 47° |
| 2026-05-01 09:44 | -34.93492 | 138.55202 | 962 ft | 156 kts | 48° |
| 2026-05-01 09:45 | -34.92808 | 138.56208 | 1758 ft | 158 kts | 45° |
| 2026-05-01 09:45 | -34.92538 | 138.59274 | 2293 ft | 242 kts | 112° |
| 2026-05-01 09:45 | -34.93438 | 138.61143 | 2489 ft | 268 kts | 116° |
| 2026-05-01 09:46 | -34.94417 | 138.63136 | 3064 ft | 278 kts | 116° |
| 2026-05-01 09:46 | -34.95391 | 138.65186 | 3930 ft | 278 kts | 116° |
| 2026-05-01 09:46 | -34.96340 | 138.67261 | 4789 ft | 283 kts | 115° |
| 2026-05-01 09:46 | -34.97282 | 138.69405 | 5490 ft | 290 kts | 112° |
| 2026-05-01 09:47 | -34.98161 | 138.71600 | 6335 ft | 288 kts | 115° |
| 2026-05-01 09:47 | -34.99107 | 138.73776 | 7051 ft | 294 kts | 115° |
| 2026-05-01 09:47 | -35.00062 | 138.75993 | 7797 ft | 297 kts | 115° |
| 2026-05-01 09:47 | -35.00386 | 138.76750 | 8070 ft | 297 kts | 115° |